Time;durP1;ratioP1;P1;durP2;ratioP2;P2;SDS_P1;SDS_P2;PMS_P1;PMS_P2;Temp;Humidity;BMP_temperature;BMP_pressure;BME280_temperature;BME280_humidity;BME280_pressure;Samples;Min_cycle;Max_cycle;Signal;HPM_P1;HPM_P2
2023/04/28 00:01:22;;;;;;;;;;;5.50;99.90;;;;;;5064671;28;19924;-93
2023/04/28 00:03:48;;;;;;;;;;;5.40;99.90;;;;;;5078650;28;19993;-91
2023/04/28 00:06:14;;;;;;;;;;;5.40;99.90;;;;;;5059581;28;19928;-92
2023/04/28 00:08:39;;;;;;;;;;;5.40;99.90;;;;;;5067184;28;19931;-91
2023/04/28 00:11:08;;;;;;;;;;;5.30;99.90;;;;;;5052311;28;20394;-92
2023/04/28 00:13:34;;;;;;;;;;;5.30;99.90;;;;;;5066193;28;20065;-92
2023/04/28 00:16:00;;;;;;;;;;;5.30;99.90;;;;;;5085551;28;19928;-90
2023/04/28 00:18:26;;;;;;;;;;;5.30;99.90;;;;;;5086394;28;20283;-91
2023/04/28 00:20:51;;;;;;;;;;;5.30;99.90;;;;;;5059803;28;19925;-92
2023/04/28 00:23:17;;;;;;;;;;;5.30;99.90;;;;;;5084253;28;19930;-92
2023/04/28 00:25:42;;;;;;;;;;;5.20;99.90;;;;;;5063775;28;19935;-92
2023/04/28 00:28:08;;;;;;;;;;;5.20;99.90;;;;;;5087144;28;19924;-92
2023/04/28 00:30:33;;;;;;;;;;;5.30;99.90;;;;;;5071932;28;19932;-92
2023/04/28 00:32:59;;;;;;;;;;;5.30;99.90;;;;;;5053736;28;19928;-92
2023/04/28 00:35:25;;;;;;;;;;;5.30;99.90;;;;;;5074632;28;19924;-92
2023/04/28 00:37:53;;;;;;;;;;;5.30;99.90;;;;;;5092424;28;19963;-93
2023/04/28 00:40:18;;;;;;;;;;;5.20;99.90;;;;;;5090192;28;19932;-93
2023/04/28 00:42:44;;;;;;;;;;;5.20;99.90;;;;;;5092156;28;19964;-92
2023/04/28 00:45:10;;;;;;;;;;;5.20;99.90;;;;;;5073382;28;19931;-91
2023/04/28 00:47:36;;;;;;;;;;;5.20;99.90;;;;;;5075616;28;19928;-92
2023/04/28 00:50:02;;;;;;;;;;;5.20;99.90;;;;;;5074671;28;19955;-90
2023/04/28 00:52:28;;;;;;;;;;;5.20;99.90;;;;;;5077778;28;19987;-92
2023/04/28 00:54:55;;;;;;;;;;;5.20;99.90;;;;;;5094681;28;19936;-92
2023/04/28 00:57:21;;;;;;;;;;;5.10;99.90;;;;;;5092216;28;19935;-91
2023/04/28 00:59:47;;;;;;;;;;;5.60;99.90;;;;;;5072108;28;19928;-92
2023/04/28 01:02:16;;;;;;;;;;;5.10;99.90;;;;;;5080583;28;19924;-93
2023/04/28 01:04:45;;;;;;;;;;;5.10;99.90;;;;;;5080898;28;19924;-92
2023/04/28 01:07:11;;;;;;;;;;;5.10;99.90;;;;;;5085552;28;19924;-92
2023/04/28 01:09:36;;;;;;;;;;;5.10;99.90;;;;;;5067854;28;19986;-92
2023/04/28 01:12:02;;;;;;;;;;;5.00;99.90;;;;;;5061474;28;19931;-93
2023/04/28 01:14:28;;;;;;;;;;;5.10;99.90;;;;;;5086032;28;19924;-91
2023/04/28 01:16:54;;;;;;;;;;;5.10;99.90;;;;;;5087137;28;19963;-92
2023/04/28 01:19:23;;;;;;;;;;;5.00;99.90;;;;;;5068022;28;20015;-92
2023/04/28 01:21:49;;;;;;;;;;;5.10;99.90;;;;;;5065832;28;19930;-92
2023/04/28 01:24:16;;;;;;;;;;;5.10;99.90;;;;;;5077282;28;19982;-93
2023/04/28 01:26:41;;;;;;;;;;;5.10;99.90;;;;;;5061383;28;20011;-93
2023/04/28 01:29:07;;;;;;;;;;;5.10;99.90;;;;;;5084449;28;19971;-93
2023/04/28 01:31:32;;;;;;;;;;;5.20;99.90;;;;;;5085453;28;19931;-92
2023/04/28 01:33:58;;;;;;;;;;;5.20;99.90;;;;;;5082420;28;20625;-92
2023/04/28 01:36:26;;;;;;;;;;;5.20;99.90;;;;;;5080347;28;19935;-92
2023/04/28 01:38:52;;;;;;;;;;;5.20;99.90;;;;;;5079019;28;20383;-92
2023/04/28 01:41:17;;;;;;;;;;;5.10;99.90;;;;;;5063295;28;19935;-92
2023/04/28 01:43:43;;;;;;;;;;;5.10;99.90;;;;;;5085665;28;19995;-93
2023/04/28 01:46:09;;;;;;;;;;;5.10;99.90;;;;;;5068613;28;19955;-92
2023/04/28 01:48:34;;;;;;;;;;;5.10;99.90;;;;;;5084450;28;19927;-93
2023/04/28 01:51:00;;;;;;;;;;;5.00;99.90;;;;;;5068787;28;19924;-91
2023/04/28 01:53:26;;;;;;;;;;;5.00;99.90;;;;;;5080467;28;19924;-93
2023/04/28 01:55:52;;;;;;;;;;;5.00;99.90;;;;;;5084876;28;19931;-91
2023/04/28 01:58:17;;;;;;;;;;;5.00;99.90;;;;;;5084244;28;19935;-93
2023/04/28 02:00:43;;;;;;;;;;;5.00;99.90;;;;;;5075340;28;19924;-93
2023/04/28 02:03:09;;;;;;;;;;;5.00;99.90;;;;;;5078874;28;19924;-92
2023/04/28 02:05:34;;;;;;;;;;;5.00;99.90;;;;;;5085415;28;19928;-93
2023/04/28 02:08:00;;;;;;;;;;;5.00;99.90;;;;;;5095187;28;19993;-93
2023/04/28 02:10:25;;;;;;;;;;;4.90;99.90;;;;;;5076130;28;19931;-93
2023/04/28 02:12:51;;;;;;;;;;;4.90;99.90;;;;;;5070608;28;19924;-94
2023/04/28 02:15:17;;;;;;;;;;;4.90;99.90;;;;;;5083740;28;20376;-92
2023/04/28 02:17:42;;;;;;;;;;;4.90;99.90;;;;;;5084691;28;19931;-92
2023/04/28 02:20:08;;;;;;;;;;;4.80;99.90;;;;;;5081177;28;19924;-92
2023/04/28 02:22:34;;;;;;;;;;;4.90;99.90;;;;;;5087377;28;19928;-93
2023/04/28 02:24:59;;;;;;;;;;;4.90;99.90;;;;;;5085735;28;19938;-91
2023/04/28 02:27:25;;;;;;;;;;;4.80;99.90;;;;;;5067172;28;19924;-92
2023/04/28 02:29:51;;;;;;;;;;;4.80;99.90;;;;;;5080997;28;19924;-91
2023/04/28 02:32:17;;;;;;;;;;;4.80;99.90;;;;;;5065740;28;20022;-92
2023/04/28 02:34:42;;;;;;;;;;;4.80;99.90;;;;;;5098341;28;19924;-93
2023/04/28 02:37:08;;;;;;;;;;;4.80;99.90;;;;;;5058254;28;19931;-91
2023/04/28 02:39:33;;;;;;;;;;;4.80;99.90;;;;;;5084477;28;20477;-93
2023/04/28 02:41:59;;;;;;;;;;;4.80;99.90;;;;;;5069762;28;20011;-93
2023/04/28 02:44:25;;;;;;;;;;;4.80;99.90;;;;;;5083548;28;20360;-92
2023/04/28 02:46:50;;;;;;;;;;;4.80;99.90;;;;;;5084707;28;19987;-92
2023/04/28 02:49:16;;;;;;;;;;;4.80;99.90;;;;;;5082973;28;19924;-93
2023/04/28 02:51:43;;;;;;;;;;;4.80;99.90;;;;;;5084221;28;22380;-93
2023/04/28 02:54:09;;;;;;;;;;;4.80;99.90;;;;;;5076259;28;19946;-92
2023/04/28 02:56:36;;;;;;;;;;;4.80;99.90;;;;;;5083903;28;20487;-95
2023/04/28 02:59:01;;;;;;;;;;;4.80;99.90;;;;;;5067082;28;19931;-92
2023/04/28 03:01:27;;;;;;;;;;;4.80;99.90;;;;;;5066980;28;19924;-92
2023/04/28 03:03:52;;;;;;;;;;;4.80;99.90;;;;;;5084334;28;20446;-92
2023/04/28 03:06:18;;;;;;;;;;;4.80;99.90;;;;;;5053650;28;19936;-92
2023/04/28 03:08:43;;;;;;;;;;;4.80;99.90;;;;;;5081857;28;19928;-93
2023/04/28 03:11:10;;;;;;;;;;;4.80;99.90;;;;;;5085229;28;19935;-93
2023/04/28 03:13:36;;;;;;;;;;;4.80;99.90;;;;;;5083797;28;19931;-91
2023/04/28 03:16:01;;;;;;;;;;;4.80;99.90;;;;;;5083371;28;19924;-93
2023/04/28 03:18:27;;;;;;;;;;;4.90;99.90;;;;;;5082785;28;19935;-92
2023/04/28 03:20:52;;;;;;;;;;;4.80;99.90;;;;;;5083921;28;19963;-93
2023/04/28 03:23:18;;;;;;;;;;;4.80;99.90;;;;;;5084115;28;19988;-93
2023/04/28 03:25:44;;;;;;;;;;;4.70;99.90;;;;;;5096957;28;19931;-93
2023/04/28 03:28:10;;;;;;;;;;;4.80;99.90;;;;;;5071617;28;19924;-93
2023/04/28 03:30:36;;;;;;;;;;;4.80;99.90;;;;;;5069392;28;20003;-92
2023/04/28 03:33:01;;;;;;;;;;;4.80;99.90;;;;;;5063334;28;19924;-92
2023/04/28 03:35:27;;;;;;;;;;;4.80;99.90;;;;;;5083720;28;19924;-93
2023/04/28 03:37:52;;;;;;;;;;;4.80;99.90;;;;;;5083837;28;19931;-93
2023/04/28 03:40:18;;;;;;;;;;;4.80;99.90;;;;;;5049757;28;19925;-93
2023/04/28 03:42:44;;;;;;;;;;;4.80;99.90;;;;;;5055689;28;20497;-94
2023/04/28 03:45:09;;;;;;;;;;;4.70;99.90;;;;;;5100651;28;20450;-92
2023/04/28 03:47:35;;;;;;;;;;;4.70;99.90;;;;;;5050105;28;19931;-94
2023/04/28 03:50:01;;;;;;;;;;;4.80;99.90;;;;;;5082720;28;19924;-93
2023/04/28 03:52:27;;;;;;;;;;;4.70;99.90;;;;;;5063609;28;19928;-93
2023/04/28 03:54:52;;;;;;;;;;;4.80;99.90;;;;;;5058327;28;19924;-93
2023/04/28 03:57:18;;;;;;;;;;;4.70;99.90;;;;;;5082512;28;19986;-92
2023/04/28 03:59:43;;;;;;;;;;;4.70;99.90;;;;;;5067153;28;19928;-93
2023/04/28 04:02:09;;;;;;;;;;;4.80;99.90;;;;;;5093483;28;20050;-92
2023/04/28 04:04:35;;;;;;;;;;;4.70;99.90;;;;;;5066788;28;20025;-93
2023/04/28 04:07:01;;;;;;;;;;;4.70;99.90;;;;;;5082263;28;20271;-93
2023/04/28 04:09:27;;;;;;;;;;;4.70;99.90;;;;;;5056782;28;19992;-92
2023/04/28 04:11:52;;;;;;;;;;;4.70;99.90;;;;;;5082618;28;19924;-93
2023/04/28 04:14:18;;;;;;;;;;;4.70;99.90;;;;;;5075810;28;19963;-93
2023/04/28 04:16:45;;;;;;;;;;;4.80;99.90;;;;;;5083294;28;19928;-92
2023/04/28 04:19:10;;;;;;;;;;;4.80;99.90;;;;;;5069581;28;19933;-92
2023/04/28 04:21:36;;;;;;;;;;;4.80;99.90;;;;;;5075383;28;19920;-93
2023/04/28 04:24:02;;;;;;;;;;;4.80;99.90;;;;;;5081671;28;19924;-93
2023/04/28 04:26:27;;;;;;;;;;;4.80;99.90;;;;;;5084450;28;19924;-92
2023/04/28 04:28:54;;;;;;;;;;;4.80;99.90;;;;;;5069852;28;19974;-92
2023/04/28 04:31:21;;;;;;;;;;;4.80;99.90;;;;;;5086468;28;19924;-93
2023/04/28 04:33:47;;;;;;;;;;;4.80;99.90;;;;;;5070685;28;20291;-92
2023/04/28 04:36:12;;;;;;;;;;;4.80;99.90;;;;;;5086153;28;19987;-93
2023/04/28 04:38:38;;;;;;;;;;;3.20;99.90;;;;;;5083722;28;19924;-93
2023/04/28 04:41:04;;;;;;;;;;;4.80;99.90;;;;;;5088014;28;20253;-93
2023/04/28 04:43:29;;;;;;;;;;;4.90;99.90;;;;;;5083309;28;20334;-93
2023/04/28 04:45:55;;;;;;;;;;;4.90;99.90;;;;;;5074868;28;20415;-92
2023/04/28 04:48:21;;;;;;;;;;;4.90;99.90;;;;;;5069666;28;19995;-92
2023/04/28 04:50:46;;;;;;;;;;;5.00;99.90;;;;;;5081642;28;19924;-92
2023/04/28 04:53:12;;;;;;;;;;;5.00;99.90;;;;;;5068724;28;19924;-91
2023/04/28 04:55:38;;;;;;;;;;;4.90;99.90;;;;;;5078753;28;19924;-92
2023/04/28 04:58:03;;;;;;;;;;;4.90;99.90;;;;;;5056997;28;19929;-92
2023/04/28 05:00:29;;;;;;;;;;;4.90;99.90;;;;;;5064485;28;19925;-93
2023/04/28 05:02:55;;;;;;;;;;;5.00;99.90;;;;;;5077935;28;19920;-93
2023/04/28 05:05:20;;;;;;;;;;;4.90;99.90;;;;;;5088325;28;19931;-92
2023/04/28 05:07:46;;;;;;;;;;;4.90;99.90;;;;;;5049613;28;19925;-92
2023/04/28 05:10:12;;;;;;;;;;;5.00;99.90;;;;;;5066732;28;19924;-93
2023/04/28 05:12:37;;;;;;;;;;;5.00;99.90;;;;;;5065974;28;19960;-92
2023/04/28 05:15:05;;;;;;;;;;;5.10;99.90;;;;;;5084913;28;19962;-92
2023/04/28 05:17:31;;;;;;;;;;;5.00;99.90;;;;;;5069364;28;19977;-94
2023/04/28 05:19:56;;;;;;;;;;;5.10;99.90;;;;;;5074691;28;19947;-91
2023/04/28 05:22:22;;;;;;;;;;;5.10;99.90;;;;;;5079484;28;19970;-94
2023/04/28 05:24:48;;;;;;;;;;;5.10;99.90;;;;;;5065649;28;20011;-93
2023/04/28 05:27:13;;;;;;;;;;;5.10;99.90;;;;;;5081902;28;19928;-92
2023/04/28 05:29:39;;;;;;;;;;;5.20;99.90;;;;;;5086189;28;19927;-94
2023/04/28 05:32:05;;;;;;;;;;;5.20;99.90;;;;;;5064929;28;19924;-93
2023/04/28 05:34:30;;;;;;;;;;;5.20;99.90;;;;;;5076333;28;19931;-93
2023/04/28 05:36:56;;;;;;;;;;;5.30;99.90;;;;;;5083339;28;19924;-93
2023/04/28 05:39:21;;;;;;;;;;;5.30;99.90;;;;;;5086060;28;19924;-91
2023/04/28 05:41:47;;;;;;;;;;;5.30;99.90;;;;;;5080323;28;19946;-93
2023/04/28 05:44:15;;;;;;;;;;;5.40;99.90;;;;;;5085696;28;19947;-93
2023/04/28 05:46:41;;;;;;;;;;;5.50;99.90;;;;;;5048277;28;19982;-92
2023/04/28 05:49:07;;;;;;;;;;;5.50;99.90;;;;;;5061637;28;19923;-93
2023/04/28 05:51:33;;;;;;;;;;;5.60;99.90;;;;;;5085476;28;19927;-93
2023/04/28 05:53:59;;;;;;;;;;;5.60;99.90;;;;;;5084751;28;19924;-94
2023/04/28 05:56:24;;;;;;;;;;;5.60;99.90;;;;;;5085738;28;19973;-95
2023/04/28 05:58:50;;;;;;;;;;;5.70;99.90;;;;;;5090538;28;19924;-93
2023/04/28 06:01:16;;;;;;;;;;;5.70;99.90;;;;;;5077178;28;19924;-93
2023/04/28 06:03:41;;;;;;;;;;;5.70;99.90;;;;;;5066961;28;19943;-93
2023/04/28 06:06:10;;;;;;;;;;;5.20;99.90;;;;;;5084715;28;19935;-93
2023/04/28 06:08:37;;;;;;;;;;;5.70;99.90;;;;;;5080147;28;19931;-93
2023/04/28 06:11:02;;;;;;;;;;;5.80;99.90;;;;;;5083748;28;19924;-93
2023/04/28 06:13:28;;;;;;;;;;;5.80;99.90;;;;;;5085264;28;19966;-94
2023/04/28 06:15:53;;;;;;;;;;;5.80;99.90;;;;;;5066699;28;19969;-94
2023/04/28 06:18:19;;;;;;;;;;;5.90;99.90;;;;;;5055667;28;19924;-92
2023/04/28 06:20:45;;;;;;;;;;;5.90;99.90;;;;;;5084511;28;19931;-92
2023/04/28 06:23:10;;;;;;;;;;;6.00;99.90;;;;;;5084342;28;19935;-93
2023/04/28 06:25:36;;;;;;;;;;;6.00;99.90;;;;;;5083299;28;19924;-93
2023/04/28 06:28:02;;;;;;;;;;;6.00;99.90;;;;;;5063596;28;19931;-94
2023/04/28 06:30:27;;;;;;;;;;;6.10;99.90;;;;;;5085066;28;19931;-92
2023/04/28 06:32:54;;;;;;;;;;;6.10;99.90;;;;;;5061307;28;20005;-95
2023/04/28 06:35:21;;;;;;;;;;;6.10;99.90;;;;;;5068048;28;19947;-93
2023/04/28 06:37:46;;;;;;;;;;;6.20;99.90;;;;;;5067188;28;19952;-93
2023/04/28 06:40:12;;;;;;;;;;;6.20;99.90;;;;;;5081471;28;19945;-94
2023/04/28 06:42:38;;;;;;;;;;;6.30;99.90;;;;;;5067864;28;19924;-93
2023/04/28 06:45:03;;;;;;;;;;;6.40;99.90;;;;;;5083164;28;19932;-92
2023/04/28 06:47:29;;;;;;;;;;;6.50;99.90;;;;;;5084440;28;19932;-93
2023/04/28 06:49:55;;;;;;;;;;;6.50;99.90;;;;;;5082954;28;19924;-92
2023/04/28 06:52:21;;;;;;;;;;;6.50;99.90;;;;;;5084370;28;19924;-93
2023/04/28 06:54:46;;;;;;;;;;;6.60;99.90;;;;;;5081987;28;20403;-94
2023/04/28 06:57:12;;;;;;;;;;;6.60;99.90;;;;;;5081127;28;19955;-95
2023/04/28 06:59:38;;;;;;;;;;;6.70;99.90;;;;;;5065121;28;19942;-93
2023/04/28 07:02:04;;;;;;;;;;;6.70;99.90;;;;;;5085046;28;19924;-94
2023/04/28 07:04:29;;;;;;;;;;;6.80;99.90;;;;;;5077551;28;19924;-93
2023/04/28 07:06:55;;;;;;;;;;;6.80;99.90;;;;;;5085905;28;19924;-95
2023/04/28 07:09:20;;;;;;;;;;;6.90;99.90;;;;;;5089241;28;19935;-93
2023/04/28 07:11:46;;;;;;;;;;;6.90;99.90;;;;;;5087413;28;19926;-94
2023/04/28 07:14:12;;;;;;;;;;;6.90;99.90;;;;;;5089657;28;19966;-94
2023/04/28 07:16:37;;;;;;;;;;;7.00;99.90;;;;;;5095003;28;19956;-90
2023/04/28 07:19:03;;;;;;;;;;;7.00;99.90;;;;;;5086840;28;19924;-92
2023/04/28 07:21:28;;;;;;;;;;;7.10;99.90;;;;;;5070506;28;20010;-90
2023/04/28 07:23:55;;;;;;;;;;;7.10;99.90;;;;;;5085925;28;20033;-91
2023/04/28 07:26:22;;;;;;;;;;;7.20;99.90;;;;;;5082668;28;19924;-92
2023/04/28 07:28:47;;;;;;;;;;;7.30;99.90;;;;;;5068715;28;20011;-91
2023/04/28 07:31:13;;;;;;;;;;;7.30;99.90;;;;;;5067665;28;19924;-91
2023/04/28 07:33:38;;;;;;;;;;;7.30;99.90;;;;;;5084751;28;19924;-91
2023/04/28 07:36:04;;;;;;;;;;;7.30;99.90;;;;;;5068804;28;19932;-94
2023/04/28 07:38:30;;;;;;;;;;;7.40;99.90;;;;;;5086649;28;19924;-92
2023/04/28 07:40:55;;;;;;;;;;;7.40;99.90;;;;;;5085272;28;20007;-91
2023/04/28 07:43:21;;;;;;;;;;;7.40;99.90;;;;;;5086332;28;19932;-91
2023/04/28 07:45:48;;;;;;;;;;;7.40;99.90;;;;;;5049968;28;19945;-93
2023/04/28 07:48:14;;;;;;;;;;;7.40;99.90;;;;;;5086427;28;19945;-91
2023/04/28 07:50:40;;;;;;;;;;;7.40;99.90;;;;;;5086796;28;19924;-93
2023/04/28 07:53:05;;;;;;;;;;;7.30;99.90;;;;;;5088883;28;19924;-91
2023/04/28 07:55:31;;;;;;;;;;;7.40;99.90;;;;;;5067952;28;19924;-91
2023/04/28 07:57:57;;;;;;;;;;;7.60;99.90;;;;;;5089712;28;19974;-92
2023/04/28 08:00:23;;;;;;;;;;;7.60;99.90;;;;;;5073759;28;19997;-91
2023/04/28 08:02:49;;;;;;;;;;;7.70;99.90;;;;;;5091397;28;19927;-91
2023/04/28 08:05:15;;;;;;;;;;;7.90;99.90;;;;;;5090578;28;19949;-91
2023/04/28 08:07:41;;;;;;;;;;;7.90;99.90;;;;;;5068543;28;20418;-92
2023/04/28 08:10:08;;;;;;;;;;;8.00;99.90;;;;;;5088998;28;19924;-91
2023/04/28 08:12:33;;;;;;;;;;;8.10;99.90;;;;;;5089534;28;19966;-92
2023/04/28 08:14:59;;;;;;;;;;;8.00;99.90;;;;;;5089735;28;19928;-92
2023/04/28 08:17:25;;;;;;;;;;;8.00;99.90;;;;;;5072681;28;19924;-94
2023/04/28 08:19:50;;;;;;;;;;;8.00;99.90;;;;;;5066803;28;19921;-93
2023/04/28 08:22:16;;;;;;;;;;;8.00;99.90;;;;;;5074312;28;19924;-93
2023/04/28 08:24:41;;;;;;;;;;;8.00;99.90;;;;;;5083678;28;19986;-94
2023/04/28 08:27:07;;;;;;;;;;;7.90;99.90;;;;;;5068909;28;20388;-93
2023/04/28 08:29:33;;;;;;;;;;;8.00;99.90;;;;;;5089004;28;19945;-92
2023/04/28 08:32:00;;;;;;;;;;;8.00;99.90;;;;;;5069247;28;19935;-90
2023/04/28 08:34:26;;;;;;;;;;;8.10;99.90;;;;;;5093336;28;19951;-92
2023/04/28 08:36:52;;;;;;;;;;;8.20;99.90;;;;;;5068274;28;20407;-94
2023/04/28 08:39:19;;;;;;;;;;;8.20;99.90;;;;;;5087652;28;19928;-94
2023/04/28 08:41:45;;;;;;;;;;;8.20;99.90;;;;;;5068829;28;20395;-93
2023/04/28 08:44:10;;;;;;;;;;;8.30;99.90;;;;;;5087363;28;19924;-94
2023/04/28 08:46:40;;;;;;;;;;;8.40;99.90;;;;;;5069250;28;19923;-94
2023/04/28 08:49:10;;;;;;;;;;;8.40;99.90;;;;;;5086234;28;19924;-92
2023/04/28 08:51:42;;;;;;;;;;;8.50;99.90;;;;;;5083394;28;19924;-94
2023/04/28 08:54:09;;;;;;;;;;;8.60;99.90;;;;;;5084833;28;19963;-95
2023/04/28 08:56:34;;;;;;;;;;;8.50;99.90;;;;;;5087101;28;19935;-92
2023/04/28 08:59:03;;;;;;;;;;;8.60;99.90;;;;;;5068205;28;19925;-93
2023/04/28 09:01:32;;;;;;;;;;;8.70;99.90;;;;;;5086816;28;20257;-93
2023/04/28 09:04:01;;;;;;;;;;;8.70;99.90;;;;;;5062571;28;19924;-92
2023/04/28 09:06:31;;;;;;;;;;;8.80;99.90;;;;;;5065619;28;19939;-93
2023/04/28 09:09:16;;;;;;;;;;;8.80;99.90;;;;;;5085988;28;19924;-94
2023/04/28 09:12:02;;;;;;;;;;;8.90;99.90;;;;;;5059411;28;19924;-93
2023/04/28 09:14:34;;;;;;;;;;;9.00;99.90;;;;;;5063651;28;19998;-93
2023/04/28 09:17:00;;;;;;;;;;;9.10;99.90;;;;;;5061351;28;20429;-95
2023/04/28 09:19:34;;;;;;;;;;;9.20;99.90;;;;;;5059339;28;19924;-92
2023/04/28 09:22:00;;;;;;;;;;;9.20;99.90;;;;;;5080219;28;20403;-92
2023/04/28 09:24:38;;;;;;;;;;;9.20;99.90;;;;;;5067475;28;19924;-93
2023/04/28 09:27:06;;;;;;;;;;;9.20;99.90;;;;;;5081204;28;20322;-94
2023/04/28 09:29:32;;;;;;;;;;;9.40;99.90;;;;;;5068373;28;19931;-94
2023/04/28 09:32:16;;;;;;;;;;;9.50;99.90;;;;;;5082010;28;20078;-93
2023/04/28 09:34:46;;;;;;;;;;;9.70;99.90;;;;;;5080649;28;19924;-93
2023/04/28 09:37:16;;;;;;;;;;;9.70;99.90;;;;;;5083991;28;19925;-93
2023/04/28 09:39:43;;;;;;;;;;;9.90;99.90;;;;;;5084382;28;19970;-93
2023/04/28 09:42:08;;;;;;;;;;;9.90;99.90;;;;;;5084369;28;20076;-91
2023/04/28 09:44:34;;;;;;;;;;;10.00;99.90;;;;;;5084937;28;19984;-92
2023/04/28 09:47:01;;;;;;;;;;;10.20;99.90;;;;;;5085059;28;19923;-93
2023/04/28 09:49:26;;;;;;;;;;;10.40;99.90;;;;;;5080534;28;19920;-92
2023/04/28 09:51:52;;;;;;;;;;;10.60;99.90;;;;;;5090485;28;19924;-94
2023/04/28 09:54:20;;;;;;;;;;;10.60;99.90;;;;;;5068450;28;19964;-93
2023/04/28 09:56:46;;;;;;;;;;;10.80;99.90;;;;;;5085407;28;20093;-94
2023/04/28 09:59:12;;;;;;;;;;;11.00;99.90;;;;;;5070480;28;19930;-93
2023/04/28 10:01:39;;;;;;;;;;;11.00;99.90;;;;;;5059865;28;19924;-92
2023/04/28 10:04:06;;;;;;;;;;;11.10;99.90;;;;;;5093093;28;19928;-92
2023/04/28 10:06:33;;;;;;;;;;;11.20;99.90;;;;;;5077821;28;19931;-94
2023/04/28 10:09:00;;;;;;;;;;;11.30;99.90;;;;;;5065674;28;19929;-93
2023/04/28 10:11:26;;;;;;;;;;;11.50;99.90;;;;;;5079858;28;19931;-92
2023/04/28 10:13:52;;;;;;;;;;;11.60;99.90;;;;;;5081456;28;19924;-93
2023/04/28 10:16:18;;;;;;;;;;;11.70;99.90;;;;;;5083600;28;20003;-93
2023/04/28 10:18:44;;;;;;;;;;;11.80;99.90;;;;;;5084492;28;19928;-92
2023/04/28 10:21:10;;;;;;;;;;;11.90;99.90;;;;;;5084508;28;19931;-92
2023/04/28 10:23:48;;;;;;;;;;;12.00;99.90;;;;;;5066430;28;19932;-92
2023/04/28 10:26:15;;;;;;;;;;;12.10;99.90;;;;;;5084825;28;19939;-94
2023/04/28 10:28:47;;;;;;;;;;;12.10;99.90;;;;;;5061178;28;20507;-92
2023/04/28 10:31:14;;;;;;;;;;;12.10;99.90;;;;;;5081215;28;19992;-95
2023/04/28 10:33:40;;;;;;;;;;;12.10;99.90;;;;;;5083542;28;19924;-94
2023/04/28 10:36:06;;;;;;;;;;;12.00;99.90;;;;;;5084305;28;19924;-94
2023/04/28 10:38:32;;;;;;;;;;;12.00;99.90;;;;;;5084781;28;19934;-92
2023/04/28 10:41:02;;;;;;;;;;;12.00;99.90;;;;;;5081162;28;19924;-92
2023/04/28 10:43:27;;;;;;;;;;;12.00;99.90;;;;;;5085347;28;19924;-92
2023/04/28 10:45:53;;;;;;;;;;;12.00;99.90;;;;;;5082046;28;20414;-93
2023/04/28 10:48:20;;;;;;;;;;;12.00;99.90;;;;;;5073024;28;19924;-93
2023/04/28 10:51:08;;;;;;;;;;;12.10;99.90;;;;;;5083280;28;19924;-92
2023/04/28 10:53:40;;;;;;;;;;;12.10;99.90;;;;;;5059542;28;20434;-93
2023/04/28 10:56:05;;;;;;;;;;;12.00;99.90;;;;;;5067646;28;20519;-93
2023/04/28 10:58:31;;;;;;;;;;;11.90;99.90;;;;;;5082527;28;19924;-94
2023/04/28 11:03:46;;;;;;;;;;;11.70;99.90;;;;;;5082283;28;19939;-95
2023/04/28 11:06:27;;;;;;;;;;;11.60;99.90;;;;;;5089088;28;19924;-92
2023/04/28 11:09:00;;;;;;;;;;;11.80;99.90;;;;;;5072594;28;19991;-93
2023/04/28 11:11:27;;;;;;;;;;;11.40;99.90;;;;;;5048975;28;19924;-92
2023/04/28 11:13:54;;;;;;;;;;;11.30;99.90;;;;;;5084900;28;19924;-94
2023/04/28 11:16:23;;;;;;;;;;;11.40;99.90;;;;;;5076961;28;19964;-93
2023/04/28 11:18:53;;;;;;;;;;;11.30;99.90;;;;;;5062201;28;19928;-93
2023/04/28 11:21:19;;;;;;;;;;;11.40;99.90;;;;;;5078423;28;19924;-94
2023/04/28 11:23:46;;;;;;;;;;;11.50;99.90;;;;;;5074183;28;19956;-93
2023/04/28 11:26:12;;;;;;;;;;;11.50;99.90;;;;;;5080236;28;19970;-92
2023/04/28 11:28:54;;;;;;;;;;;11.60;99.90;;;;;;5078630;28;19925;-93
2023/04/28 11:31:22;;;;;;;;;;;11.60;99.90;;;;;;5074465;28;20445;-94
2023/04/28 11:33:54;;;;;;;;;;;11.60;99.90;;;;;;5079017;28;19925;-94
2023/04/28 11:36:31;;;;;;;;;;;11.70;99.90;;;;;;5075008;28;19946;-93
2023/04/28 11:38:57;;;;;;;;;;;11.80;99.90;;;;;;5063841;28;19932;-94
2023/04/28 11:41:23;;;;;;;;;;;11.90;99.90;;;;;;5059755;28;19924;-93
2023/04/28 11:43:49;;;;;;;;;;;11.90;99.90;;;;;;5081067;28;19946;-93
2023/04/28 11:46:24;;;;;;;;;;;11.90;99.90;;;;;;5053672;28;19925;-93
2023/04/28 11:49:01;;;;;;;;;;;12.00;99.90;;;;;;5079645;28;19975;-93
2023/04/28 11:51:34;;;;;;;;;;;12.10;99.90;;;;;;5080005;28;19924;-92
2023/04/28 11:54:00;;;;;;;;;;;12.20;99.90;;;;;;5078969;28;19967;-93
2023/04/28 11:56:26;;;;;;;;;;;11.80;99.90;;;;;;5063440;28;19931;-93
2023/04/28 11:58:59;;;;;;;;;;;12.20;99.90;;;;;;5041906;28;19925;-92
2023/04/28 12:01:24;;;;;;;;;;;12.20;99.90;;;;;;5078634;28;19928;-93
2023/04/28 12:03:50;;;;;;;;;;;12.40;99.90;;;;;;5079269;28;19970;-92
2023/04/28 12:06:17;;;;;;;;;;;12.30;99.90;;;;;;5046038;28;20418;-93
2023/04/28 12:08:43;;;;;;;;;;;12.60;99.90;;;;;;5056180;28;19925;-93
2023/04/28 12:11:09;;;;;;;;;;;12.40;99.90;;;;;;5069953;28;19939;-92
2023/04/28 12:13:37;;;;;;;;;;;12.40;99.90;;;;;;5077181;28;19924;-94
2023/04/28 12:16:06;;;;;;;;;;;12.40;99.90;;;;;;5061215;28;19952;-93
2023/04/28 12:18:32;;;;;;;;;;;12.40;99.90;;;;;;5063181;28;19932;-92
2023/04/28 12:20:58;;;;;;;;;;;12.40;99.90;;;;;;5081825;28;19950;-93
2023/04/28 12:23:34;;;;;;;;;;;12.40;99.90;;;;;;5091377;28;19924;-91
2023/04/28 12:26:01;;;;;;;;;;;12.30;99.90;;;;;;5064691;28;19988;-92
2023/04/28 12:28:36;;;;;;;;;;;12.30;99.90;;;;;;5049444;28;19954;-93
2023/04/28 12:31:03;;;;;;;;;;;12.30;99.90;;;;;;5087548;28;19964;-91
2023/04/28 12:33:29;;;;;;;;;;;12.40;99.90;;;;;;5081732;28;19925;-93
2023/04/28 12:35:55;;;;;;;;;;;12.30;99.90;;;;;;5073966;28;19936;-93
2023/04/28 12:38:21;;;;;;;;;;;12.30;99.90;;;;;;5065230;28;19925;-92
2023/04/28 12:40:47;;;;;;;;;;;12.20;99.90;;;;;;5063109;28;19936;-93
2023/04/28 12:43:13;;;;;;;;;;;12.10;99.90;;;;;;5074520;28;19925;-93
2023/04/28 12:45:40;;;;;;;;;;;12.20;99.90;;;;;;5061594;28;19946;-93
2023/04/28 12:48:06;;;;;;;;;;;12.20;99.90;;;;;;5076765;28;19947;-94
2023/04/28 12:50:32;;;;;;;;;;;12.20;99.90;;;;;;5065864;28;19983;-93
2023/04/28 12:52:57;;;;;;;;;;;12.20;99.90;;;;;;5084410;28;19935;-92
2023/04/28 12:55:23;;;;;;;;;;;12.20;99.90;;;;;;5085517;28;19924;-93
2023/04/28 12:57:48;;;;;;;;;;;12.20;99.90;;;;;;5087550;28;19963;-92
2023/04/28 13:00:21;;;;;;;;;;;12.20;99.90;;;;;;5088752;28;19954;-91
2023/04/28 13:02:47;;;;;;;;;;;12.40;99.90;;;;;;5072266;28;19924;-93
2023/04/28 13:05:18;;;;;;;;;;;11.90;99.90;;;;;;5090778;28;19943;-92
2023/04/28 13:07:44;;;;;;;;;;;12.50;99.90;;;;;;5082941;28;20000;-92
2023/04/28 13:10:09;;;;;;;;;;;12.50;99.90;;;;;;5084192;28;19924;-92
2023/04/28 13:12:35;;;;;;;;;;;12.50;99.90;;;;;;5073390;28;19924;-92
2023/04/28 13:15:01;;;;;;;;;;;12.50;99.90;;;;;;5072073;28;19969;-92
2023/04/28 13:17:27;;;;;;;;;;;12.50;99.90;;;;;;5070956;28;19964;-92
2023/04/28 13:19:53;;;;;;;;;;;12.40;99.90;;;;;;5088378;28;19947;-92
2023/04/28 13:22:20;;;;;;;;;;;12.40;99.90;;;;;;5074419;28;19935;-94
2023/04/28 13:24:46;;;;;;;;;;;12.50;99.90;;;;;;5088409;28;19928;-92
2023/04/28 13:27:12;;;;;;;;;;;12.50;99.90;;;;;;5061724;28;20017;-92
2023/04/28 13:29:37;;;;;;;;;;;12.50;99.90;;;;;;5085611;28;19929;-92
2023/04/28 13:32:04;;;;;;;;;;;12.50;99.90;;;;;;5048890;28;19967;-92
2023/04/28 13:34:30;;;;;;;;;;;12.50;99.90;;;;;;5088200;28;19928;-93
2023/04/28 13:36:56;;;;;;;;;;;12.50;99.90;;;;;;5106353;28;19969;-93
2023/04/28 13:39:22;;;;;;;;;;;12.50;99.90;;;;;;5098316;28;19919;-92
2023/04/28 13:41:48;;;;;;;;;;;12.40;99.90;;;;;;5097217;28;20362;-91
2023/04/28 13:44:14;;;;;;;;;;;12.40;99.90;;;;;;5089064;28;19935;-91
2023/04/28 13:46:40;;;;;;;;;;;12.30;99.90;;;;;;5084632;28;19924;-91
2023/04/28 13:49:06;;;;;;;;;;;12.30;99.90;;;;;;5085488;28;19924;-91
2023/04/28 13:51:32;;;;;;;;;;;12.30;99.90;;;;;;5069029;28;19924;-91
2023/04/28 13:53:58;;;;;;;;;;;12.20;99.90;;;;;;5085217;28;20318;-92
2023/04/28 13:56:23;;;;;;;;;;;12.20;99.90;;;;;;5069148;28;19928;-90
2023/04/28 13:58:49;;;;;;;;;;;12.20;99.90;;;;;;5083387;28;19928;-91
2023/04/28 14:01:15;;;;;;;;;;;12.20;99.90;;;;;;5085648;28;20364;-90
2023/04/28 14:03:40;;;;;;;;;;;12.10;99.90;;;;;;5066874;28;19924;-90
2023/04/28 14:06:07;;;;;;;;;;;12.10;99.90;;;;;;5065133;28;20339;-90
2023/04/28 14:08:32;;;;;;;;;;;12.00;99.90;;;;;;5079926;28;20319;-91
2023/04/28 14:10:58;;;;;;;;;;;12.00;99.90;;;;;;5066959;28;19946;-92
2023/04/28 14:13:24;;;;;;;;;;;12.00;99.90;;;;;;5081778;28;19939;-90
2023/04/28 14:15:53;;;;;;;;;;;12.00;99.90;;;;;;5082496;28;19928;-91
2023/04/28 14:18:18;;;;;;;;;;;12.00;99.90;;;;;;5084534;28;19924;-91
2023/04/28 14:20:44;;;;;;;;;;;12.00;99.90;;;;;;5081906;28;19924;-90
2023/04/28 14:23:10;;;;;;;;;;;12.00;99.90;;;;;;5064696;28;19925;-91
2023/04/28 14:25:36;;;;;;;;;;;11.90;99.90;;;;;;5061039;28;19931;-92